Repto San Juan, Puerto Rico
Current Conditions -  °F | °C
As of 12:50 AM on Friday 31 Oct 2014 (Local Time) from TJBQ Reporting Station
Light Rain Light Rain  
Wind Chill: 72°   Ceiling: 9000
Heat Index: 72°   Visibility: 10mi
Dew Point: 70°   Wind: 3mph
Humidity: 94%   Direction: 130°SE
Pressure: 29.87"   Gusts: NA
Location:  18.4739°N, 66.7295°W
Report Text: TJBQ 310450Z 13003KT 10SM -RA SCT060 BKN090 22/21 A2987 RMK LTG DSNT W- TWR CLOSED UNTIL 1100Z
Loading
Personal Weather Stations






























Interactive Weather Map
Tropical Storm Tracking
New forecast layout! Learn more

10-Day Weather Forecast

Advertisements
Track Severe Weather on mobile